New Yoshino — JG5527 — position and weather

sailwx.info

Track history (hours):
 
Tides and Currents Weather Stations Pressure Air Temp Water Temp Dewpoint Dewpoint Depression Visibility Wind Speed Wind Dir Waves Ship Positions

New Yoshino

Last reported at 2016-Jun-29 21:31 UTC. Time now 2016-Jun-29 21:58 UTC.
Position N 35°28' E 139°44'.

Length 102 m; draft 6.8 m.

Type: Tanker. MMSI: 431300724.

Date/timePositionNaut miles runAvg speedWind from/ knotsBaromVisibWave heightAir tempDewpointWater temp
2016-Jun-29 21:31N 35°28' E 139°44'0 0.0
2016-Jun-29 20:31N 35°28' E 139°44'0 0.0
2016-Jun-29 19:31N 35°28' E 139°44'0 0.0
2016-Jun-29 18:31N 35°28' E 139°44'0 0.0
2016-Jun-29 17:31N 35°28' E 139°44'0 0.1
2016-Jun-29 16:31N 35°28' E 139°44'1 0.8
2016-Jun-29 15:33N 35°27' E 139°44'10 9.9
2016-Jun-29 14:33N 35°17' E 139°45'1211.8
2016-Jun-29 13:33N 35°05' E 139°45'1312.4
2016-Jun-29 12:33N 34°53' E 139°42'2311.2
2016-Jun-29 10:33N 34°56' E 140°10'2512.5
2016-Jun-29 08:33N 35°13' E 140°32'1412.7
2016-Jun-29 07:27N 35°24' E 140°42'3110.3
2016-Jun-29 04:25N 35°55' E 140°47'5 5.7
2016-Jun-29 03:33N 35°55' E 140°41'0 0.0
2016-Jun-28 21:18N 35°55' E 140°41'4 5.1
2016-Jun-28 20:33N 35°58' E 140°43'2 2.0
2016-Jun-28 19:26N 36°00' E 140°43'0 0.0
2016-Jun-28 18:32N 36°00' E 140°43'0 0.0
2016-Jun-28 17:29N 36°00' E 140°43'0 0.0
2016-Jun-28 16:32N 36°00' E 140°43'0 0.0
2016-Jun-28 15:29N 36°00' E 140°43'0 0.0
2016-Jun-28 14:29N 36°00' E 140°43'0 0.0
2016-Jun-28 13:29N 36°00' E 140°43'6 6.5
2016-Jun-28 12:33N 36°06' E 140°44'41 1.0
2016-Jun-26 19:17N 36°43' E 141°05'1613.1
2016-Jun-26 18:04N 36°27' E 141°03'712.8
2016-Jun-26 17:31N 36°21' E 141°02'1212.4
2016-Jun-26 16:33N 36°09' E 141°01'1312.7
2016-Jun-26 15:33N 35°56' E 140°59'1413.8
2016-Jun-26 14:33N 35°42' E 140°58'1313.3
2016-Jun-26 13:33N 35°31' E 140°49'4413.8
2016-Jun-26 10:24N 34°59' E 140°13'1514.1
2016-Jun-26 09:22N 34°52' E 139°58'1012.7
2016-Jun-26 08:33N 34°53' E 139°45'1212.2
2016-Jun-26 07:33N 35°06' E 139°44'1212.0
2016-Jun-26 06:34N 35°17' E 139°44'1110.8
2016-Jun-26 05:33N 35°28' E 139°49'1111.3
2016-Jun-26 04:33N 35°31' E 140°02'0 0.4
2016-Jun-26 03:32N 35°31' E 140°02'0 0.0
2016-Jun-26 02:29N 35°31' E 140°02'0 0.0
2016-Jun-26 01:26N 35°31' E 140°02'0 0.0
2016-Jun-26 00:32N 35°31' E 140°02'0 0.0
2016-Jun-25 23:26N 35°31' E 140°02'0 0.0
2016-Jun-25 22:29N 35°31' E 140°02'0 0.0
2016-Jun-25 21:32N 35°31' E 140°02'1 1.4
2016-Jun-25 20:33N 35°32' E 140°01'1 1.0
2016-Jun-25 19:31N 35°33' E 140°01'0 0.1
2016-Jun-25 18:33N 35°33' E 140°01'0 0.1
2016-Jun-25 17:33N 35°33' E 140°01'0 0.0
2016-Jun-25 16:32N 35°33' E 140°01'0 0.0
2016-Jun-25 15:33N 35°33' E 140°01'0 0.0
2016-Jun-25 14:33N 35°33' E 140°01'0 0.0
2016-Jun-25 13:33N 35°33' E 140°01'0 0.0
2016-Jun-25 12:33N 35°33' E 140°01'0 0.0
2016-Jun-25 11:33N 35°33' E 140°01'0 0.0
2016-Jun-25 10:33N 35°33' E 140°01'0 0.0
2016-Jun-25 09:31N 35°33' E 140°01'0 0.0
2016-Jun-25 08:33N 35°33' E 140°01'0 0.0
2016-Jun-25 07:33N 35°33' E 140°01'0 0.0
2016-Jun-25 06:33N 35°33' E 140°01'0 0.0
2016-Jun-25 05:33N 35°33' E 140°01'0 0.0
2016-Jun-25 04:32N 35°33' E 140°01'0 0.0
2016-Jun-25 03:33N 35°33' E 140°01'0 0.0
2016-Jun-25 02:33N 35°33' E 140°01'0 0.0
2016-Jun-25 01:34N 35°33' E 140°01'1 0.6
2016-Jun-25 00:33N 35°33' E 140°02'5 4.8
2016-Jun-24 23:31N 35°36' E 140°07'0 0.0
2016-Jun-24 22:31N 35°36' E 140°07'0 0.0
2016-Jun-24 21:31N 35°36' E 140°07'0 0.0
2016-Jun-24 20:31N 35°36' E 140°07'0 0.0
2016-Jun-24 19:28N 35°36' E 140°07'0 0.0
2016-Jun-24 18:28N 35°36' E 140°07'0 0.0
2016-Jun-24 17:22N 35°36' E 140°07'0 0.0
2016-Jun-24 16:31N 35°36' E 140°07'0 0.0
2016-Jun-24 15:28N 35°36' E 140°07'0 0.0
2016-Jun-24 14:31N 35°36' E 140°07'0 0.0
2016-Jun-24 13:31N 35°36' E 140°07'0 0.0
2016-Jun-24 12:28N 35°36' E 140°07'0 0.0
2016-Jun-24 11:25N 35°36' E 140°07'0 0.0
2016-Jun-24 10:19N 35°36' E 140°07'0 0.0
2016-Jun-24 09:31N 35°36' E 140°07'0 0.0
2016-Jun-24 08:22N 35°36' E 140°07'0 0.0
2016-Jun-24 07:25N 35°36' E 140°07'2 0.8
2016-Jun-24 04:33N 35°35' E 140°04'7 7.5
2016-Jun-24 03:33N 35°31' E 139°56'8 3.9
2016-Jun-24 01:25N 35°32' E 139°46'0 0.0
2016-Jun-24 00:32N 35°32' E 139°46'0 0.0
2016-Jun-23 23:32N 35°32' E 139°46'0 0.0
2016-Jun-23 22:34N 35°32' E 139°46'5 4.6
2016-Jun-23 21:34N 35°28' E 139°42'5 4.5
2016-Jun-23 20:28N 35°24' E 139°45'0 0.0
2016-Jun-23 19:28N 35°24' E 139°45'0 0.0
2016-Jun-23 18:31N 35°24' E 139°45'0 0.1
2016-Jun-23 17:31N 35°24' E 139°45'0 0.0
2016-Jun-23 16:31N 35°24' E 139°45'0 0.1
2016-Jun-23 15:31N 35°24' E 139°45'0 0.0
2016-Jun-23 14:31N 35°24' E 139°45'0 0.0
2016-Jun-23 13:31N 35°24' E 139°45'0 0.0
2016-Jun-23 12:31N 35°24' E 139°45'0 0.0
2016-Jun-23 11:31N 35°24' E 139°45'4 3.7
2016-Jun-23 10:33N 35°24' E 139°40'1 1.0
2016-Jun-23 09:33N 35°24' E 139°40'0 0.0
2016-Jun-23 08:33N 35°24' E 139°40'0 0.0
2016-Jun-23 07:30N 35°24' E 139°40'0 0.0
2016-Jun-23 05:33N 35°24' E 139°40'2 1.7
2016-Jun-23 04:33N 35°23' E 139°41'3 2.9
2016-Jun-23 03:33N 35°22' E 139°44'0 0.1
2016-Jun-23 02:33N 35°22' E 139°44'0 0.0
2016-Jun-23 01:33N 35°22' E 139°44'0 0.0
2016-Jun-23 00:33N 35°22' E 139°44'0 0.0
2016-Jun-22 23:33N 35°22' E 139°44'0 0.0
2016-Jun-22 22:33N 35°22' E 139°44'0 0.0
2016-Jun-22 21:33N 35°22' E 139°44'0 0.1
2016-Jun-22 20:33N 35°22' E 139°44'0 0.1
2016-Jun-22 19:34N 35°22' E 139°44'1110.8
2016-Jun-22 18:34N 35°12' E 139°47'2914.2
2016-Jun-22 16:29N 34°51' E 139°21'4414.6
2016-Jun-22 13:28N 34°31' E 138°34'52 1.0
2016-Jun-20 10:27N 34°57' E 139°29'1413.5
2016-Jun-20 09:26N 35°06' E 139°42'1112.6
2016-Jun-20 08:33N 35°16' E 139°46'1010.0
2016-Jun-20 07:33N 35°26' E 139°45'5 5.2
2016-Jun-20 06:31N 35°32' E 139°46'0 0.0
2016-Jun-20 05:25N 35°32' E 139°46'0 0.0
2016-Jun-20 04:25N 35°32' E 139°46'0 0.0
2016-Jun-20 03:31N 35°32' E 139°46'0 0.0
2016-Jun-20 02:28N 35°32' E 139°46'0 0.0
2016-Jun-20 01:25N 35°32' E 139°46'0 0.0
2016-Jun-20 00:31N 35°32' E 139°46'4 3.8
2016-Jun-19 23:33N 35°29' E 139°42'7 7.4
2016-Jun-19 22:33N 35°22' E 139°45'1110.7
2016-Jun-19 21:33N 35°11' E 139°47'  
Track history (hours):
 
Tides and Currents Weather Stations Pressure Air Temp Water Temp Dewpoint Dewpoint Depression Visibility Wind Speed Wind Dir Waves Ship Positions

New Yoshino

Last reported at 2016-Jun-29 21:31 UTC. Time now 2016-Jun-29 21:58 UTC.
Position N 35°28' E 139°44'.

Length 102 m; draft 6.8 m.

Type: Tanker. MMSI: 431300724.

Date/timePositionNaut miles runAvg speedWind from/ knotsBaromVisibWave heightAir tempDewpointWater temp
2016-Jun-29 21:31N 35°28' E 139°44'0 0.0
2016-Jun-29 20:31N 35°28' E 139°44'0 0.0
2016-Jun-29 19:31N 35°28' E 139°44'0 0.0
2016-Jun-29 18:31N 35°28' E 139°44'0 0.0
2016-Jun-29 17:31N 35°28' E 139°44'0 0.1
2016-Jun-29 16:31N 35°28' E 139°44'1 0.8
2016-Jun-29 15:33N 35°27' E 139°44'10 9.9
2016-Jun-29 14:33N 35°17' E 139°45'1211.8
2016-Jun-29 13:33N 35°05' E 139°45'1312.4
2016-Jun-29 12:33N 34°53' E 139°42'2311.2
2016-Jun-29 10:33N 34°56' E 140°10'2512.5
2016-Jun-29 08:33N 35°13' E 140°32'1412.7
2016-Jun-29 07:27N 35°24' E 140°42'3110.3
2016-Jun-29 04:25N 35°55' E 140°47'5 5.7
2016-Jun-29 03:33N 35°55' E 140°41'0 0.0
2016-Jun-28 21:18N 35°55' E 140°41'4 5.1
2016-Jun-28 20:33N 35°58' E 140°43'2 2.0
2016-Jun-28 19:26N 36°00' E 140°43'0 0.0
2016-Jun-28 18:32N 36°00' E 140°43'0 0.0
2016-Jun-28 17:29N 36°00' E 140°43'0 0.0
2016-Jun-28 16:32N 36°00' E 140°43'0 0.0
2016-Jun-28 15:29N 36°00' E 140°43'0 0.0
2016-Jun-28 14:29N 36°00' E 140°43'0 0.0
2016-Jun-28 13:29N 36°00' E 140°43'6 6.5
2016-Jun-28 12:33N 36°06' E 140°44'41 1.0
2016-Jun-26 19:17N 36°43' E 141°05'1613.1
2016-Jun-26 18:04N 36°27' E 141°03'712.8
2016-Jun-26 17:31N 36°21' E 141°02'1212.4
2016-Jun-26 16:33N 36°09' E 141°01'1312.7
2016-Jun-26 15:33N 35°56' E 140°59'1413.8
2016-Jun-26 14:33N 35°42' E 140°58'1313.3
2016-Jun-26 13:33N 35°31' E 140°49'4413.8
2016-Jun-26 10:24N 34°59' E 140°13'1514.1
2016-Jun-26 09:22N 34°52' E 139°58'1012.7
2016-Jun-26 08:33N 34°53' E 139°45'1212.2
2016-Jun-26 07:33N 35°06' E 139°44'1212.0
2016-Jun-26 06:34N 35°17' E 139°44'1110.8
2016-Jun-26 05:33N 35°28' E 139°49'1111.3
2016-Jun-26 04:33N 35°31' E 140°02'0 0.4
2016-Jun-26 03:32N 35°31' E 140°02'0 0.0
2016-Jun-26 02:29N 35°31' E 140°02'0 0.0
2016-Jun-26 01:26N 35°31' E 140°02'0 0.0
2016-Jun-26 00:32N 35°31' E 140°02'0 0.0
2016-Jun-25 23:26N 35°31' E 140°02'0 0.0
2016-Jun-25 22:29N 35°31' E 140°02'0 0.0
2016-Jun-25 21:32N 35°31' E 140°02'1 1.4
2016-Jun-25 20:33N 35°32' E 140°01'1 1.0
2016-Jun-25 19:31N 35°33' E 140°01'0 0.1
2016-Jun-25 18:33N 35°33' E 140°01'0 0.1
2016-Jun-25 17:33N 35°33' E 140°01'0 0.0
2016-Jun-25 16:32N 35°33' E 140°01'0 0.0
2016-Jun-25 15:33N 35°33' E 140°01'0 0.0
2016-Jun-25 14:33N 35°33' E 140°01'0 0.0
2016-Jun-25 13:33N 35°33' E 140°01'0 0.0
2016-Jun-25 12:33N 35°33' E 140°01'0 0.0
2016-Jun-25 11:33N 35°33' E 140°01'0 0.0
2016-Jun-25 10:33N 35°33' E 140°01'0 0.0
2016-Jun-25 09:31N 35°33' E 140°01'0 0.0
2016-Jun-25 08:33N 35°33' E 140°01'0 0.0
2016-Jun-25 07:33N 35°33' E 140°01'0 0.0
2016-Jun-25 06:33N 35°33' E 140°01'0 0.0
2016-Jun-25 05:33N 35°33' E 140°01'0 0.0
2016-Jun-25 04:32N 35°33' E 140°01'0 0.0
2016-Jun-25 03:33N 35°33' E 140°01'0 0.0
2016-Jun-25 02:33N 35°33' E 140°01'0 0.0
2016-Jun-25 01:34N 35°33' E 140°01'1 0.6
2016-Jun-25 00:33N 35°33' E 140°02'5 4.8
2016-Jun-24 23:31N 35°36' E 140°07'0 0.0
2016-Jun-24 22:31N 35°36' E 140°07'0 0.0
2016-Jun-24 21:31N 35°36' E 140°07'0 0.0
2016-Jun-24 20:31N 35°36' E 140°07'0 0.0
2016-Jun-24 19:28N 35°36' E 140°07'0 0.0
2016-Jun-24 18:28N 35°36' E 140°07'0 0.0
2016-Jun-24 17:22N 35°36' E 140°07'0 0.0
2016-Jun-24 16:31N 35°36' E 140°07'0 0.0
2016-Jun-24 15:28N 35°36' E 140°07'0 0.0
2016-Jun-24 14:31N 35°36' E 140°07'0 0.0
2016-Jun-24 13:31N 35°36' E 140°07'0 0.0
2016-Jun-24 12:28N 35°36' E 140°07'0 0.0
2016-Jun-24 11:25N 35°36' E 140°07'0 0.0
2016-Jun-24 10:19N 35°36' E 140°07'0 0.0
2016-Jun-24 09:31N 35°36' E 140°07'0 0.0
2016-Jun-24 08:22N 35°36' E 140°07'0 0.0
2016-Jun-24 07:25N 35°36' E 140°07'2 0.8
2016-Jun-24 04:33N 35°35' E 140°04'7 7.5
2016-Jun-24 03:33N 35°31' E 139°56'8 3.9
2016-Jun-24 01:25N 35°32' E 139°46'0 0.0
2016-Jun-24 00:32N 35°32' E 139°46'0 0.0
2016-Jun-23 23:32N 35°32' E 139°46'0 0.0
2016-Jun-23 22:34N 35°32' E 139°46'5 4.6
2016-Jun-23 21:34N 35°28' E 139°42'5 4.5
2016-Jun-23 20:28N 35°24' E 139°45'0 0.0
2016-Jun-23 19:28N 35°24' E 139°45'0 0.0
2016-Jun-23 18:31N 35°24' E 139°45'0 0.1
2016-Jun-23 17:31N 35°24' E 139°45'0 0.0
2016-Jun-23 16:31N 35°24' E 139°45'0 0.1
2016-Jun-23 15:31N 35°24' E 139°45'0 0.0
2016-Jun-23 14:31N 35°24' E 139°45'0 0.0
2016-Jun-23 13:31N 35°24' E 139°45'0 0.0
2016-Jun-23 12:31N 35°24' E 139°45'0 0.0
2016-Jun-23 11:31N 35°24' E 139°45'4 3.7
2016-Jun-23 10:33N 35°24' E 139°40'1 1.0
2016-Jun-23 09:33N 35°24' E 139°40'0 0.0
2016-Jun-23 08:33N 35°24' E 139°40'0 0.0
2016-Jun-23 07:30N 35°24' E 139°40'0 0.0
2016-Jun-23 05:33N 35°24' E 139°40'2 1.7
2016-Jun-23 04:33N 35°23' E 139°41'3 2.9
2016-Jun-23 03:33N 35°22' E 139°44'0 0.1
2016-Jun-23 02:33N 35°22' E 139°44'0 0.0
2016-Jun-23 01:33N 35°22' E 139°44'0 0.0
2016-Jun-23 00:33N 35°22' E 139°44'0 0.0
2016-Jun-22 23:33N 35°22' E 139°44'0 0.0
2016-Jun-22 22:33N 35°22' E 139°44'0 0.0
2016-Jun-22 21:33N 35°22' E 139°44'0 0.1
2016-Jun-22 20:33N 35°22' E 139°44'0 0.1
2016-Jun-22 19:34N 35°22' E 139°44'1110.8
2016-Jun-22 18:34N 35°12' E 139°47'2914.2
2016-Jun-22 16:29N 34°51' E 139°21'4414.6
2016-Jun-22 13:28N 34°31' E 138°34'52 1.0
2016-Jun-20 10:27N 34°57' E 139°29'1413.5
2016-Jun-20 09:26N 35°06' E 139°42'1112.6
2016-Jun-20 08:33N 35°16' E 139°46'1010.0
2016-Jun-20 07:33N 35°26' E 139°45'5 5.2
2016-Jun-20 06:31N 35°32' E 139°46'0 0.0
2016-Jun-20 05:25N 35°32' E 139°46'0 0.0
2016-Jun-20 04:25N 35°32' E 139°46'0 0.0
2016-Jun-20 03:31N 35°32' E 139°46'0 0.0
2016-Jun-20 02:28N 35°32' E 139°46'0 0.0
2016-Jun-20 01:25N 35°32' E 139°46'0 0.0
2016-Jun-20 00:31N 35°32' E 139°46'4 3.8
2016-Jun-19 23:33N 35°29' E 139°42'7 7.4
2016-Jun-19 22:33N 35°22' E 139°45'1110.7
2016-Jun-19 21:33N 35°11' E 139°47'  

Dump ship's entire track history